sensor_id;sensor_type;location;lat;lon;timestamp;P1;durP1;ratioP1;P2;durP2;ratioP2
9420;SDS011;4749;51.398;5.466;2024-01-16T00:02:16;8.33;;;5.73;;
9420;SDS011;4749;51.398;5.466;2024-01-16T00:04:44;8.17;;;5.37;;
9420;SDS011;4749;51.398;5.466;2024-01-16T00:07:11;12.53;;;5.63;;
9420;SDS011;4749;51.398;5.466;2024-01-16T00:09:38;10.03;;;5.90;;
9420;SDS011;4749;51.398;5.466;2024-01-16T00:12:05;11.17;;;7.00;;
9420;SDS011;4749;51.398;5.466;2024-01-16T00:14:36;10.80;;;6.67;;
9420;SDS011;4749;51.398;5.466;2024-01-16T00:17:03;12.87;;;6.63;;
9420;SDS011;4749;51.398;5.466;2024-01-16T00:19:31;9.73;;;6.77;;
9420;SDS011;4749;51.398;5.466;2024-01-16T00:21:59;12.07;;;7.40;;
9420;SDS011;4749;51.398;5.466;2024-01-16T00:24:28;12.00;;;7.70;;
9420;SDS011;4749;51.398;5.466;2024-01-16T00:26:56;15.00;;;7.50;;
9420;SDS011;4749;51.398;5.466;2024-01-16T00:29:23;12.83;;;8.07;;
9420;SDS011;4749;51.398;5.466;2024-01-16T00:31:50;19.20;;;8.10;;
9420;SDS011;4749;51.398;5.466;2024-01-16T00:34:17;14.13;;;8.27;;
9420;SDS011;4749;51.398;5.466;2024-01-16T00:36:44;14.97;;;7.33;;
9420;SDS011;4749;51.398;5.466;2024-01-16T00:39:11;15.10;;;8.00;;
9420;SDS011;4749;51.398;5.466;2024-01-16T00:41:39;14.13;;;7.40;;
9420;SDS011;4749;51.398;5.466;2024-01-16T00:44:06;13.40;;;7.57;;
9420;SDS011;4749;51.398;5.466;2024-01-16T00:46:34;18.30;;;8.97;;
9420;SDS011;4749;51.398;5.466;2024-01-16T00:49:01;13.80;;;7.37;;
9420;SDS011;4749;51.398;5.466;2024-01-16T00:51:28;14.30;;;7.70;;
9420;SDS011;4749;51.398;5.466;2024-01-16T00:53:55;11.17;;;6.70;;
9420;SDS011;4749;51.398;5.466;2024-01-16T00:56:23;15.30;;;6.83;;
9420;SDS011;4749;51.398;5.466;2024-01-16T00:58:50;12.73;;;6.17;;
9420;SDS011;4749;51.398;5.466;2024-01-16T01:01:17;9.60;;;5.13;;
9420;SDS011;4749;51.398;5.466;2024-01-16T01:03:45;12.47;;;6.17;;
9420;SDS011;4749;51.398;5.466;2024-01-16T01:06:12;10.73;;;5.43;;
9420;SDS011;4749;51.398;5.466;2024-01-16T01:08:39;11.00;;;5.27;;
9420;SDS011;4749;51.398;5.466;2024-01-16T01:11:06;11.67;;;6.10;;
9420;SDS011;4749;51.398;5.466;2024-01-16T01:13:34;11.10;;;5.90;;
9420;SDS011;4749;51.398;5.466;2024-01-16T01:16:01;8.67;;;5.53;;
9420;SDS011;4749;51.398;5.466;2024-01-16T01:18:28;12.27;;;6.23;;
9420;SDS011;4749;51.398;5.466;2024-01-16T01:20:55;9.73;;;4.80;;
9420;SDS011;4749;51.398;5.466;2024-01-16T01:23:22;12.23;;;5.67;;
9420;SDS011;4749;51.398;5.466;2024-01-16T01:25:49;9.63;;;5.43;;
9420;SDS011;4749;51.398;5.466;2024-01-16T01:28:17;11.90;;;5.40;;
9420;SDS011;4749;51.398;5.466;2024-01-16T01:30:45;9.50;;;5.00;;
9420;SDS011;4749;51.398;5.466;2024-01-16T01:33:12;8.20;;;4.07;;
9420;SDS011;4749;51.398;5.466;2024-01-16T01:35:39;10.93;;;4.10;;
9420;SDS011;4749;51.398;5.466;2024-01-16T01:38:07;6.90;;;3.00;;
9420;SDS011;4749;51.398;5.466;2024-01-16T01:40:34;6.27;;;2.97;;
9420;SDS011;4749;51.398;5.466;2024-01-16T01:46:20;6.93;;;2.40;;
9420;SDS011;4749;51.398;5.466;2024-01-16T01:48:48;6.03;;;2.47;;
9420;SDS011;4749;51.398;5.466;2024-01-16T01:51:19;9.23;;;2.40;;
9420;SDS011;4749;51.398;5.466;2024-01-16T01:53:47;6.23;;;2.13;;
9420;SDS011;4749;51.398;5.466;2024-01-16T01:56:18;6.10;;;2.10;;
9420;SDS011;4749;51.398;5.466;2024-01-16T01:58:46;8.03;;;2.27;;
9420;SDS011;4749;51.398;5.466;2024-01-16T02:01:16;8.50;;;2.17;;
9420;SDS011;4749;51.398;5.466;2024-01-16T02:03:46;6.90;;;2.23;;
9420;SDS011;4749;51.398;5.466;2024-01-16T02:06:15;6.23;;;2.27;;
9420;SDS011;4749;51.398;5.466;2024-01-16T02:08:44;5.93;;;1.90;;
9420;SDS011;4749;51.398;5.466;2024-01-16T02:11:11;6.03;;;2.30;;
9420;SDS011;4749;51.398;5.466;2024-01-16T02:13:39;4.83;;;2.17;;
9420;SDS011;4749;51.398;5.466;2024-01-16T02:16:20;6.97;;;2.30;;
9420;SDS011;4749;51.398;5.466;2024-01-16T02:18:48;5.40;;;2.27;;
9420;SDS011;4749;51.398;5.466;2024-01-16T02:21:20;4.33;;;1.93;;
9420;SDS011;4749;51.398;5.466;2024-01-16T02:23:48;6.23;;;2.30;;
9420;SDS011;4749;51.398;5.466;2024-01-16T02:26:17;6.23;;;2.27;;
9420;SDS011;4749;51.398;5.466;2024-01-16T02:28:45;5.47;;;2.00;;
9420;SDS011;4749;51.398;5.466;2024-01-16T02:31:12;6.97;;;2.33;;
9420;SDS011;4749;51.398;5.466;2024-01-16T02:33:40;7.70;;;2.57;;
9420;SDS011;4749;51.398;5.466;2024-01-16T02:36:07;5.90;;;1.77;;
9420;SDS011;4749;51.398;5.466;2024-01-16T02:38:34;7.57;;;1.83;;
9420;SDS011;4749;51.398;5.466;2024-01-16T02:41:01;4.13;;;1.70;;
9420;SDS011;4749;51.398;5.466;2024-01-16T02:43:28;5.40;;;1.77;;
9420;SDS011;4749;51.398;5.466;2024-01-16T02:45:55;5.93;;;1.80;;
9420;SDS011;4749;51.398;5.466;2024-01-16T02:48:24;6.20;;;1.73;;
9420;SDS011;4749;51.398;5.466;2024-01-16T02:50:52;3.47;;;1.50;;
9420;SDS011;4749;51.398;5.466;2024-01-16T02:53:19;4.87;;;1.80;;
9420;SDS011;4749;51.398;5.466;2024-01-16T02:55:46;4.07;;;2.30;;
9420;SDS011;4749;51.398;5.466;2024-01-16T02:58:13;5.27;;;2.10;;
9420;SDS011;4749;51.398;5.466;2024-01-16T03:00:40;5.70;;;2.40;;
9420;SDS011;4749;51.398;5.466;2024-01-16T03:03:08;6.87;;;2.70;;
9420;SDS011;4749;51.398;5.466;2024-01-16T03:05:35;5.83;;;3.03;;
9420;SDS011;4749;51.398;5.466;2024-01-16T03:08:03;8.33;;;3.93;;
9420;SDS011;4749;51.398;5.466;2024-01-16T03:10:30;13.37;;;5.00;;
9420;SDS011;4749;51.398;5.466;2024-01-16T03:12:57;9.67;;;4.87;;
9420;SDS011;4749;51.398;5.466;2024-01-16T03:15:25;9.33;;;4.63;;
9420;SDS011;4749;51.398;5.466;2024-01-16T03:17:52;8.80;;;5.63;;
9420;SDS011;4749;51.398;5.466;2024-01-16T03:20:19;13.63;;;6.30;;
9420;SDS011;4749;51.398;5.466;2024-01-16T03:22:46;12.70;;;6.40;;
9420;SDS011;4749;51.398;5.466;2024-01-16T03:25:13;14.53;;;8.17;;
9420;SDS011;4749;51.398;5.466;2024-01-16T03:27:40;15.60;;;8.27;;
9420;SDS011;4749;51.398;5.466;2024-01-16T03:30:08;15.93;;;8.97;;
9420;SDS011;4749;51.398;5.466;2024-01-16T03:32:36;16.90;;;10.07;;
9420;SDS011;4749;51.398;5.466;2024-01-16T03:35:04;18.47;;;10.33;;
9420;SDS011;4749;51.398;5.466;2024-01-16T03:37:32;20.63;;;10.40;;
9420;SDS011;4749;51.398;5.466;2024-01-16T03:40:00;17.97;;;10.73;;
9420;SDS011;4749;51.398;5.466;2024-01-16T03:42:27;23.00;;;10.77;;
9420;SDS011;4749;51.398;5.466;2024-01-16T03:44:54;16.53;;;9.50;;
9420;SDS011;4749;51.398;5.466;2024-01-16T03:47:21;21.70;;;10.83;;
9420;SDS011;4749;51.398;5.466;2024-01-16T03:49:49;22.87;;;11.40;;
9420;SDS011;4749;51.398;5.466;2024-01-16T03:52:17;23.63;;;10.43;;
9420;SDS011;4749;51.398;5.466;2024-01-16T03:54:44;19.17;;;9.83;;
9420;SDS011;4749;51.398;5.466;2024-01-16T03:57:11;16.67;;;10.37;;
9420;SDS011;4749;51.398;5.466;2024-01-16T03:59:39;18.20;;;10.47;;
9420;SDS011;4749;51.398;5.466;2024-01-16T04:02:06;23.57;;;9.47;;
9420;SDS011;4749;51.398;5.466;2024-01-16T04:04:33;17.80;;;9.43;;
9420;SDS011;4749;51.398;5.466;2024-01-16T04:07:01;19.60;;;9.03;;
9420;SDS011;4749;51.398;5.466;2024-01-16T04:09:28;23.03;;;9.47;;
9420;SDS011;4749;51.398;5.466;2024-01-16T04:11:56;18.10;;;9.03;;
9420;SDS011;4749;51.398;5.466;2024-01-16T04:14:23;17.10;;;8.37;;
9420;SDS011;4749;51.398;5.466;2024-01-16T04:16:50;16.20;;;7.50;;
9420;SDS011;4749;51.398;5.466;2024-01-16T04:19:17;19.43;;;8.17;;
9420;SDS011;4749;51.398;5.466;2024-01-16T04:21:44;21.30;;;8.27;;
9420;SDS011;4749;51.398;5.466;2024-01-16T04:24:12;17.07;;;7.53;;
9420;SDS011;4749;51.398;5.466;2024-01-16T04:26:39;12.50;;;6.60;;
9420;SDS011;4749;51.398;5.466;2024-01-16T04:29:07;16.97;;;8.00;;
9420;SDS011;4749;51.398;5.466;2024-01-16T04:31:38;21.30;;;6.77;;
9420;SDS011;4749;51.398;5.466;2024-01-16T04:34:09;18.13;;;6.43;;
9420;SDS011;4749;51.398;5.466;2024-01-16T04:36:36;16.33;;;7.07;;
9420;SDS011;4749;51.398;5.466;2024-01-16T04:39:03;21.93;;;7.13;;
9420;SDS011;4749;51.398;5.466;2024-01-16T04:41:31;15.90;;;6.30;;
9420;SDS011;4749;51.398;5.466;2024-01-16T04:43:58;22.07;;;7.27;;
9420;SDS011;4749;51.398;5.466;2024-01-16T04:46:25;15.27;;;6.83;;
9420;SDS011;4749;51.398;5.466;2024-01-16T04:48:53;18.27;;;6.80;;
9420;SDS011;4749;51.398;5.466;2024-01-16T04:51:20;16.53;;;6.70;;
9420;SDS011;4749;51.398;5.466;2024-01-16T04:53:47;22.23;;;7.00;;
9420;SDS011;4749;51.398;5.466;2024-01-16T04:56:14;13.67;;;6.37;;
9420;SDS011;4749;51.398;5.466;2024-01-16T04:58:41;13.67;;;6.50;;
9420;SDS011;4749;51.398;5.466;2024-01-16T05:01:08;15.00;;;5.63;;
9420;SDS011;4749;51.398;5.466;2024-01-16T05:03:35;15.57;;;6.50;;
9420;SDS011;4749;51.398;5.466;2024-01-16T05:06:03;14.90;;;5.53;;
9420;SDS011;4749;51.398;5.466;2024-01-16T05:08:30;13.40;;;5.60;;
9420;SDS011;4749;51.398;5.466;2024-01-16T05:10:57;15.27;;;5.20;;
9420;SDS011;4749;51.398;5.466;2024-01-16T05:13:24;19.17;;;6.10;;
9420;SDS011;4749;51.398;5.466;2024-01-16T05:15:52;20.03;;;5.90;;
9420;SDS011;4749;51.398;5.466;2024-01-16T05:18:19;15.10;;;5.70;;
9420;SDS011;4749;51.398;5.466;2024-01-16T05:20:46;13.80;;;5.60;;
9420;SDS011;4749;51.398;5.466;2024-01-16T05:23:14;20.33;;;6.20;;
9420;SDS011;4749;51.398;5.466;2024-01-16T05:25:41;16.30;;;5.87;;
9420;SDS011;4749;51.398;5.466;2024-01-16T05:28:08;17.70;;;5.57;;
9420;SDS011;4749;51.398;5.466;2024-01-16T05:30:35;10.33;;;5.23;;
9420;SDS011;4749;51.398;5.466;2024-01-16T05:33:03;15.03;;;5.40;;
9420;SDS011;4749;51.398;5.466;2024-01-16T05:35:30;13.83;;;5.90;;
9420;SDS011;4749;51.398;5.466;2024-01-16T05:37:58;13.73;;;5.67;;
9420;SDS011;4749;51.398;5.466;2024-01-16T05:40:29;13.67;;;5.90;;
9420;SDS011;4749;51.398;5.466;2024-01-16T05:42:56;15.87;;;5.10;;
9420;SDS011;4749;51.398;5.466;2024-01-16T05:45:23;10.57;;;5.87;;
9420;SDS011;4749;51.398;5.466;2024-01-16T05:47:50;12.90;;;5.50;;
9420;SDS011;4749;51.398;5.466;2024-01-16T05:50:17;12.53;;;5.50;;
9420;SDS011;4749;51.398;5.466;2024-01-16T05:52:45;12.70;;;5.27;;
9420;SDS011;4749;51.398;5.466;2024-01-16T05:55:12;11.90;;;5.60;;
9420;SDS011;4749;51.398;5.466;2024-01-16T05:57:39;12.67;;;5.60;;
9420;SDS011;4749;51.398;5.466;2024-01-16T06:00:08;15.50;;;5.93;;
9420;SDS011;4749;51.398;5.466;2024-01-16T06:02:36;14.47;;;5.50;;
9420;SDS011;4749;51.398;5.466;2024-01-16T06:05:03;12.93;;;5.47;;
9420;SDS011;4749;51.398;5.466;2024-01-16T06:07:32;11.43;;;5.47;;
9420;SDS011;4749;51.398;5.466;2024-01-16T06:09:59;14.90;;;5.23;;
9420;SDS011;4749;51.398;5.466;2024-01-16T06:12:26;10.53;;;5.27;;
9420;SDS011;4749;51.398;5.466;2024-01-16T06:14:53;9.47;;;5.30;;
9420;SDS011;4749;51.398;5.466;2024-01-16T06:17:21;12.63;;;5.70;;
9420;SDS011;4749;51.398;5.466;2024-01-16T06:19:48;14.67;;;5.67;;
9420;SDS011;4749;51.398;5.466;2024-01-16T06:22:15;10.57;;;5.10;;
9420;SDS011;4749;51.398;5.466;2024-01-16T06:24:43;13.70;;;6.03;;
9420;SDS011;4749;51.398;5.466;2024-01-16T06:27:10;9.83;;;5.10;;
9420;SDS011;4749;51.398;5.466;2024-01-16T06:29:37;12.17;;;4.73;;
9420;SDS011;4749;51.398;5.466;2024-01-16T06:32:04;12.93;;;5.10;;
9420;SDS011;4749;51.398;5.466;2024-01-16T06:34:31;16.03;;;5.53;;
9420;SDS011;4749;51.398;5.466;2024-01-16T06:36:58;12.30;;;4.93;;
9420;SDS011;4749;51.398;5.466;2024-01-16T06:39:25;10.07;;;4.83;;
9420;SDS011;4749;51.398;5.466;2024-01-16T06:41:52;14.53;;;4.97;;
9420;SDS011;4749;51.398;5.466;2024-01-16T06:44:20;9.73;;;4.90;;
9420;SDS011;4749;51.398;5.466;2024-01-16T06:46:47;11.57;;;5.20;;
9420;SDS011;4749;51.398;5.466;2024-01-16T06:49:14;10.80;;;4.57;;
9420;SDS011;4749;51.398;5.466;2024-01-16T06:51:41;11.80;;;4.80;;
9420;SDS011;4749;51.398;5.466;2024-01-16T06:54:08;11.60;;;4.87;;
9420;SDS011;4749;51.398;5.466;2024-01-16T06:56:36;12.03;;;4.70;;
9420;SDS011;4749;51.398;5.466;2024-01-16T06:59:03;8.97;;;4.77;;
9420;SDS011;4749;51.398;5.466;2024-01-16T07:01:33;11.30;;;4.90;;
9420;SDS011;4749;51.398;5.466;2024-01-16T07:04:00;13.03;;;4.73;;
9420;SDS011;4749;51.398;5.466;2024-01-16T07:06:28;15.63;;;5.33;;
9420;SDS011;4749;51.398;5.466;2024-01-16T07:08:55;14.87;;;5.10;;
9420;SDS011;4749;51.398;5.466;2024-01-16T07:11:22;10.43;;;4.60;;
9420;SDS011;4749;51.398;5.466;2024-01-16T07:13:50;11.07;;;4.40;;
9420;SDS011;4749;51.398;5.466;2024-01-16T07:16:17;10.37;;;5.03;;
9420;SDS011;4749;51.398;5.466;2024-01-16T07:18:45;15.63;;;5.47;;
9420;SDS011;4749;51.398;5.466;2024-01-16T07:21:17;11.73;;;4.90;;
9420;SDS011;4749;51.398;5.466;2024-01-16T07:23:45;11.60;;;4.87;;
9420;SDS011;4749;51.398;5.466;2024-01-16T07:26:13;12.13;;;5.37;;
9420;SDS011;4749;51.398;5.466;2024-01-16T07:28:40;12.13;;;5.00;;
9420;SDS011;4749;51.398;5.466;2024-01-16T07:31:07;12.20;;;4.90;;
9420;SDS011;4749;51.398;5.466;2024-01-16T07:33:36;13.50;;;5.23;;
9420;SDS011;4749;51.398;5.466;2024-01-16T07:36:03;14.57;;;5.10;;
9420;SDS011;4749;51.398;5.466;2024-01-16T07:38:31;8.27;;;5.10;;
9420;SDS011;4749;51.398;5.466;2024-01-16T07:40:59;11.80;;;5.77;;
9420;SDS011;4749;51.398;5.466;2024-01-16T07:43:26;18.57;;;5.90;;
9420;SDS011;4749;51.398;5.466;2024-01-16T07:45:53;10.73;;;5.07;;
9420;SDS011;4749;51.398;5.466;2024-01-16T07:48:20;11.03;;;5.17;;
9420;SDS011;4749;51.398;5.466;2024-01-16T07:50:49;9.90;;;5.67;;
9420;SDS011;4749;51.398;5.466;2024-01-16T07:53:17;16.87;;;5.97;;
9420;SDS011;4749;51.398;5.466;2024-01-16T07:55:44;16.93;;;6.10;;
9420;SDS011;4749;51.398;5.466;2024-01-16T07:58:12;13.27;;;6.00;;
9420;SDS011;4749;51.398;5.466;2024-01-16T08:00:40;13.60;;;6.53;;
9420;SDS011;4749;51.398;5.466;2024-01-16T08:03:08;11.97;;;5.93;;
9420;SDS011;4749;51.398;5.466;2024-01-16T08:05:40;15.27;;;5.90;;
9420;SDS011;4749;51.398;5.466;2024-01-16T08:08:08;13.77;;;5.47;;
9420;SDS011;4749;51.398;5.466;2024-01-16T08:10:36;12.63;;;5.77;;
9420;SDS011;4749;51.398;5.466;2024-01-16T08:13:03;13.80;;;6.00;;
9420;SDS011;4749;51.398;5.466;2024-01-16T08:15:31;12.83;;;5.47;;
9420;SDS011;4749;51.398;5.466;2024-01-16T08:17:58;11.93;;;6.07;;
9420;SDS011;4749;51.398;5.466;2024-01-16T08:20:25;15.07;;;5.50;;
9420;SDS011;4749;51.398;5.466;2024-01-16T08:22:53;14.63;;;5.73;;
9420;SDS011;4749;51.398;5.466;2024-01-16T08:25:20;17.00;;;5.17;;
9420;SDS011;4749;51.398;5.466;2024-01-16T08:27:48;12.47;;;5.93;;
9420;SDS011;4749;51.398;5.466;2024-01-16T08:30:15;17.23;;;5.70;;
9420;SDS011;4749;51.398;5.466;2024-01-16T08:32:42;13.23;;;5.43;;
9420;SDS011;4749;51.398;5.466;2024-01-16T08:35:09;12.57;;;5.40;;
9420;SDS011;4749;51.398;5.466;2024-01-16T08:37:37;12.30;;;5.57;;
9420;SDS011;4749;51.398;5.466;2024-01-16T08:40:04;11.57;;;6.10;;
9420;SDS011;4749;51.398;5.466;2024-01-16T08:42:32;10.93;;;5.80;;
9420;SDS011;4749;51.398;5.466;2024-01-16T08:45:00;12.10;;;5.10;;
9420;SDS011;4749;51.398;5.466;2024-01-16T08:47:28;12.00;;;5.80;;
9420;SDS011;4749;51.398;5.466;2024-01-16T08:49:55;11.57;;;5.13;;
9420;SDS011;4749;51.398;5.466;2024-01-16T08:52:22;13.43;;;5.57;;
9420;SDS011;4749;51.398;5.466;2024-01-16T08:54:50;13.50;;;6.03;;
9420;SDS011;4749;51.398;5.466;2024-01-16T08:57:17;15.37;;;5.97;;
9420;SDS011;4749;51.398;5.466;2024-01-16T08:59:46;13.53;;;5.63;;
9420;SDS011;4749;51.398;5.466;2024-01-16T09:02:14;11.40;;;5.63;;
9420;SDS011;4749;51.398;5.466;2024-01-16T09:04:42;12.47;;;5.53;;
9420;SDS011;4749;51.398;5.466;2024-01-16T09:07:10;13.87;;;5.60;;
9420;SDS011;4749;51.398;5.466;2024-01-16T09:09:42;9.57;;;5.60;;
9420;SDS011;4749;51.398;5.466;2024-01-16T09:12:09;12.67;;;5.57;;
9420;SDS011;4749;51.398;5.466;2024-01-16T09:14:36;11.27;;;5.00;;
9420;SDS011;4749;51.398;5.466;2024-01-16T09:17:04;13.83;;;5.00;;
9420;SDS011;4749;51.398;5.466;2024-01-16T09:19:31;10.37;;;5.30;;
9420;SDS011;4749;51.398;5.466;2024-01-16T09:21:58;12.30;;;5.80;;
9420;SDS011;4749;51.398;5.466;2024-01-16T09:24:26;12.00;;;5.07;;
9420;SDS011;4749;51.398;5.466;2024-01-16T09:26:53;10.60;;;5.27;;
9420;SDS011;4749;51.398;5.466;2024-01-16T09:29:20;14.10;;;5.00;;
9420;SDS011;4749;51.398;5.466;2024-01-16T09:31:48;9.17;;;4.90;;
9420;SDS011;4749;51.398;5.466;2024-01-16T09:34:16;14.10;;;5.97;;
9420;SDS011;4749;51.398;5.466;2024-01-16T09:36:44;12.97;;;5.13;;
9420;SDS011;4749;51.398;5.466;2024-01-16T09:39:12;11.60;;;5.27;;
9420;SDS011;4749;51.398;5.466;2024-01-16T09:41:44;10.90;;;5.73;;
9420;SDS011;4749;51.398;5.466;2024-01-16T09:44:11;11.40;;;5.50;;
9420;SDS011;4749;51.398;5.466;2024-01-16T09:46:39;13.27;;;5.77;;
9420;SDS011;4749;51.398;5.466;2024-01-16T09:49:11;12.37;;;5.30;;
9420;SDS011;4749;51.398;5.466;2024-01-16T09:51:42;12.83;;;5.57;;
9420;SDS011;4749;51.398;5.466;2024-01-16T09:54:10;11.53;;;5.80;;
9420;SDS011;4749;51.398;5.466;2024-01-16T09:56:46;13.13;;;5.50;;
9420;SDS011;4749;51.398;5.466;2024-01-16T09:59:18;9.80;;;5.13;;
9420;SDS011;4749;51.398;5.466;2024-01-16T10:01:48;14.23;;;5.33;;
9420;SDS011;4749;51.398;5.466;2024-01-16T10:04:17;13.03;;;5.60;;
9420;SDS011;4749;51.398;5.466;2024-01-16T10:06:45;12.80;;;5.07;;
9420;SDS011;4749;51.398;5.466;2024-01-16T10:09:13;15.63;;;5.77;;
9420;SDS011;4749;51.398;5.466;2024-01-16T10:11:42;12.43;;;5.37;;
9420;SDS011;4749;51.398;5.466;2024-01-16T10:14:10;12.87;;;4.30;;
9420;SDS011;4749;51.398;5.466;2024-01-16T10:19:50;11.17;;;5.00;;
9420;SDS011;4749;51.398;5.466;2024-01-16T10:22:23;11.67;;;5.40;;
9420;SDS011;4749;51.398;5.466;2024-01-16T10:27:34;17.50;;;5.53;;
9420;SDS011;4749;51.398;5.466;2024-01-16T10:30:02;10.00;;;5.10;;
9420;SDS011;4749;51.398;5.466;2024-01-16T10:32:34;9.30;;;4.90;;
9420;SDS011;4749;51.398;5.466;2024-01-16T10:35:05;12.43;;;5.43;;
9420;SDS011;4749;51.398;5.466;2024-01-16T10:37:41;12.10;;;5.57;;
9420;SDS011;4749;51.398;5.466;2024-01-16T10:40:23;11.07;;;5.33;;
9420;SDS011;4749;51.398;5.466;2024-01-16T10:45:30;11.77;;;5.73;;
9420;SDS011;4749;51.398;5.466;2024-01-16T10:48:02;9.50;;;4.83;;
9420;SDS011;4749;51.398;5.466;2024-01-16T10:50:37;10.87;;;5.30;;
9420;SDS011;4749;51.398;5.466;2024-01-16T10:53:06;8.87;;;5.20;;
9420;SDS011;4749;51.398;5.466;2024-01-16T10:55:50;12.87;;;5.43;;
9420;SDS011;4749;51.398;5.466;2024-01-16T10:58:22;9.83;;;4.97;;
9420;SDS011;4749;51.398;5.466;2024-01-16T11:00:52;10.87;;;5.43;;
9420;SDS011;4749;51.398;5.466;2024-01-16T11:06:12;18.73;;;5.10;;
9420;SDS011;4749;51.398;5.466;2024-01-16T11:08:46;9.00;;;4.97;;
9420;SDS011;4749;51.398;5.466;2024-01-16T11:11:14;11.80;;;4.93;;
9420;SDS011;4749;51.398;5.466;2024-01-16T11:13:42;12.67;;;5.00;;
9420;SDS011;4749;51.398;5.466;2024-01-16T11:16:13;10.90;;;4.83;;
9420;SDS011;4749;51.398;5.466;2024-01-16T11:18:40;10.27;;;4.90;;
9420;SDS011;4749;51.398;5.466;2024-01-16T11:21:08;8.57;;;4.73;;
9420;SDS011;4749;51.398;5.466;2024-01-16T11:23:43;9.13;;;4.73;;
9420;SDS011;4749;51.398;5.466;2024-01-16T11:29:01;10.73;;;4.90;;
9420;SDS011;4749;51.398;5.466;2024-01-16T11:32:01;8.17;;;4.87;;
9420;SDS011;4749;51.398;5.466;2024-01-16T11:37:24;10.37;;;5.03;;
9420;SDS011;4749;51.398;5.466;2024-01-16T11:42:45;11.37;;;5.37;;
9420;SDS011;4749;51.398;5.466;2024-01-16T11:48:15;11.20;;;5.17;;
9420;SDS011;4749;51.398;5.466;2024-01-16T11:50:44;7.60;;;4.33;;
9420;SDS011;4749;51.398;5.466;2024-01-16T11:53:46;11.37;;;5.37;;
9420;SDS011;4749;51.398;5.466;2024-01-16T12:02:18;10.27;;;5.03;;
9420;SDS011;4749;51.398;5.466;2024-01-16T12:04:53;11.53;;;5.93;;
9420;SDS011;4749;51.398;5.466;2024-01-16T12:07:23;12.70;;;5.30;;
9420;SDS011;4749;51.398;5.466;2024-01-16T12:09:50;10.83;;;4.80;;
9420;SDS011;4749;51.398;5.466;2024-01-16T12:12:17;14.97;;;6.00;;
9420;SDS011;4749;51.398;5.466;2024-01-16T12:14:51;12.83;;;5.37;;
9420;SDS011;4749;51.398;5.466;2024-01-16T12:17:21;10.43;;;5.87;;
9420;SDS011;4749;51.398;5.466;2024-01-16T12:19:49;9.77;;;5.73;;
9420;SDS011;4749;51.398;5.466;2024-01-16T12:22:16;11.33;;;5.23;;
9420;SDS011;4749;51.398;5.466;2024-01-16T12:24:51;11.57;;;5.40;;
9420;SDS011;4749;51.398;5.466;2024-01-16T12:27:23;11.23;;;5.27;;
9420;SDS011;4749;51.398;5.466;2024-01-16T12:30:03;9.90;;;5.30;;
9420;SDS011;4749;51.398;5.466;2024-01-16T12:32:34;14.10;;;5.70;;
9420;SDS011;4749;51.398;5.466;2024-01-16T12:35:01;12.43;;;6.13;;
9420;SDS011;4749;51.398;5.466;2024-01-16T12:37:30;9.47;;;5.47;;
9420;SDS011;4749;51.398;5.466;2024-01-16T12:39:57;12.77;;;4.90;;
9420;SDS011;4749;51.398;5.466;2024-01-16T12:42:25;10.03;;;5.20;;
9420;SDS011;4749;51.398;5.466;2024-01-16T12:44:52;11.57;;;4.97;;
9420;SDS011;4749;51.398;5.466;2024-01-16T12:47:21;10.87;;;5.77;;
9420;SDS011;4749;51.398;5.466;2024-01-16T12:49:49;8.97;;;5.23;;
9420;SDS011;4749;51.398;5.466;2024-01-16T12:52:17;16.53;;;5.27;;
9420;SDS011;4749;51.398;5.466;2024-01-16T12:54:47;10.80;;;5.20;;
9420;SDS011;4749;51.398;5.466;2024-01-16T12:57:19;10.23;;;4.60;;
9420;SDS011;4749;51.398;5.466;2024-01-16T12:59:47;10.50;;;5.00;;
9420;SDS011;4749;51.398;5.466;2024-01-16T13:02:19;10.03;;;4.77;;
9420;SDS011;4749;51.398;5.466;2024-01-16T13:04:58;10.63;;;5.20;;
9420;SDS011;4749;51.398;5.466;2024-01-16T13:07:28;7.27;;;4.30;;
9420;SDS011;4749;51.398;5.466;2024-01-16T13:10:33;7.03;;;4.60;;
9420;SDS011;4749;51.398;5.466;2024-01-16T13:13:10;7.77;;;5.03;;
9420;SDS011;4749;51.398;5.466;2024-01-16T13:15:39;9.60;;;4.60;;
9420;SDS011;4749;51.398;5.466;2024-01-16T13:18:16;11.93;;;4.40;;
9420;SDS011;4749;51.398;5.466;2024-01-16T13:20:47;10.27;;;4.37;;
9420;SDS011;4749;51.398;5.466;2024-01-16T13:23:16;9.23;;;4.10;;
9420;SDS011;4749;51.398;5.466;2024-01-16T13:25:44;6.73;;;4.03;;
9420;SDS011;4749;51.398;5.466;2024-01-16T13:28:13;12.97;;;4.13;;
9420;SDS011;4749;51.398;5.466;2024-01-16T13:30:48;7.70;;;3.77;;
9420;SDS011;4749;51.398;5.466;2024-01-16T13:33:16;11.00;;;4.20;;
9420;SDS011;4749;51.398;5.466;2024-01-16T13:35:44;9.23;;;4.20;;
9420;SDS011;4749;51.398;5.466;2024-01-16T13:38:13;9.97;;;4.13;;
9420;SDS011;4749;51.398;5.466;2024-01-16T13:40:48;7.43;;;3.57;;
9420;SDS011;4749;51.398;5.466;2024-01-16T13:43:16;9.87;;;4.00;;
9420;SDS011;4749;51.398;5.466;2024-01-16T13:45:44;12.73;;;4.00;;
9420;SDS011;4749;51.398;5.466;2024-01-16T13:48:11;5.83;;;3.63;;
9420;SDS011;4749;51.398;5.466;2024-01-16T13:50:38;6.50;;;3.53;;
9420;SDS011;4749;51.398;5.466;2024-01-16T13:53:06;7.53;;;3.40;;
9420;SDS011;4749;51.398;5.466;2024-01-16T13:55:34;9.97;;;4.03;;
9420;SDS011;4749;51.398;5.466;2024-01-16T13:58:01;9.83;;;4.00;;
9420;SDS011;4749;51.398;5.466;2024-01-16T14:00:29;7.87;;;3.97;;
9420;SDS011;4749;51.398;5.466;2024-01-16T14:02:58;11.10;;;4.40;;
9420;SDS011;4749;51.398;5.466;2024-01-16T14:05:25;10.70;;;3.73;;
9420;SDS011;4749;51.398;5.466;2024-01-16T14:07:53;9.33;;;4.30;;
9420;SDS011;4749;51.398;5.466;2024-01-16T14:10:21;7.10;;;3.87;;
9420;SDS011;4749;51.398;5.466;2024-01-16T14:12:51;9.63;;;3.90;;
9420;SDS011;4749;51.398;5.466;2024-01-16T14:15:19;7.70;;;4.33;;
9420;SDS011;4749;51.398;5.466;2024-01-16T14:17:51;8.17;;;3.87;;
9420;SDS011;4749;51.398;5.466;2024-01-16T14:20:22;10.53;;;4.23;;
9420;SDS011;4749;51.398;5.466;2024-01-16T14:22:54;10.67;;;4.40;;
9420;SDS011;4749;51.398;5.466;2024-01-16T14:25:22;10.07;;;3.90;;
9420;SDS011;4749;51.398;5.466;2024-01-16T14:27:57;7.20;;;4.03;;
9420;SDS011;4749;51.398;5.466;2024-01-16T14:30:40;7.50;;;3.07;;
9420;SDS011;4749;51.398;5.466;2024-01-16T14:33:09;7.67;;;3.87;;
9420;SDS011;4749;51.398;5.466;2024-01-16T14:35:37;5.93;;;3.30;;
9420;SDS011;4749;51.398;5.466;2024-01-16T14:38:04;7.83;;;3.83;;
9420;SDS011;4749;51.398;5.466;2024-01-16T14:40:32;7.43;;;3.60;;
9420;SDS011;4749;51.398;5.466;2024-01-16T14:42:59;13.00;;;3.93;;
9420;SDS011;4749;51.398;5.466;2024-01-16T14:45:30;9.87;;;3.73;;
9420;SDS011;4749;51.398;5.466;2024-01-16T14:47:58;7.50;;;3.90;;
9420;SDS011;4749;51.398;5.466;2024-01-16T14:50:26;11.67;;;3.53;;
9420;SDS011;4749;51.398;5.466;2024-01-16T14:52:56;10.17;;;4.13;;
9420;SDS011;4749;51.398;5.466;2024-01-16T14:55:23;9.40;;;4.20;;
9420;SDS011;4749;51.398;5.466;2024-01-16T14:57:53;10.73;;;3.60;;
9420;SDS011;4749;51.398;5.466;2024-01-16T15:00:26;8.73;;;3.93;;
9420;SDS011;4749;51.398;5.466;2024-01-16T15:02:54;10.47;;;3.73;;
9420;SDS011;4749;51.398;5.466;2024-01-16T15:05:21;8.70;;;4.33;;
9420;SDS011;4749;51.398;5.466;2024-01-16T15:07:49;10.67;;;4.00;;
9420;SDS011;4749;51.398;5.466;2024-01-16T15:10:20;8.10;;;3.73;;
9420;SDS011;4749;51.398;5.466;2024-01-16T15:12:48;6.03;;;3.60;;
9420;SDS011;4749;51.398;5.466;2024-01-16T15:15:15;7.93;;;3.83;;
9420;SDS011;4749;51.398;5.466;2024-01-16T15:17:43;8.60;;;3.80;;
9420;SDS011;4749;51.398;5.466;2024-01-16T15:20:11;8.90;;;4.10;;
9420;SDS011;4749;51.398;5.466;2024-01-16T15:22:39;11.27;;;4.20;;
9420;SDS011;4749;51.398;5.466;2024-01-16T15:25:12;7.83;;;3.83;;
9420;SDS011;4749;51.398;5.466;2024-01-16T15:27:42;8.23;;;3.83;;
9420;SDS011;4749;51.398;5.466;2024-01-16T15:30:11;8.73;;;3.70;;
9420;SDS011;4749;51.398;5.466;2024-01-16T15:32:40;9.53;;;4.47;;
9420;SDS011;4749;51.398;5.466;2024-01-16T15:35:08;10.63;;;4.40;;
9420;SDS011;4749;51.398;5.466;2024-01-16T15:37:35;9.77;;;4.40;;
9420;SDS011;4749;51.398;5.466;2024-01-16T15:40:03;8.83;;;4.30;;
9420;SDS011;4749;51.398;5.466;2024-01-16T15:42:33;6.70;;;3.53;;
9420;SDS011;4749;51.398;5.466;2024-01-16T15:45:05;11.10;;;4.10;;
9420;SDS011;4749;51.398;5.466;2024-01-16T15:47:33;11.40;;;4.10;;